Weather at Escuela Mariscal Sucre Airport

Public forecast

Using degrees Celsius for public forecast. Weather courtesy of forecast.io.

Current aviation weather report (METAR) for Escuela Mariscal Sucre Airport

Retrieved 2021/09/28 12:03 UTC (54 minutes ago):

SVBS 281203Z AUTO 00000KT NCD ///// Q////

Closest aviation forecast (TAF) to Escuela Mariscal Sucre Airport

Forecast is more than 12 hours old.

Closest forecast is Arturo Michelena International Airport, 17.5 nm (32.5 km) WSW. Retrieved 2021/09/27 12:00 UTC (1 day ago):

TAF SVVA 271000Z 2712/2812 29005KT 9999 SCT016 BKN070 TX33/2719 TN23/2809 BECMG 2716/2719 VRB05KT 9000 VCDZ BKN020 FM 271930 15005KT 9999 SCT020 BKN080